sensor_id;sensor_type;location;lat;lon;timestamp;P1;durP1;ratioP1;P2;durP2;ratioP2
67640;SDS011;54434;50.096;20.082;2022-12-31T00:01:52;55.20;;;28.20;;
67640;SDS011;54434;50.096;20.082;2022-12-31T00:04:29;60.40;;;27.90;;
67640;SDS011;54434;50.096;20.082;2022-12-31T00:07:05;56.60;;;27.50;;
67640;SDS011;54434;50.096;20.082;2022-12-31T00:09:42;58.30;;;28.20;;
67640;SDS011;54434;50.096;20.082;2022-12-31T00:12:18;58.00;;;27.50;;
67640;SDS011;54434;50.096;20.082;2022-12-31T00:14:55;58.90;;;29.10;;
67640;SDS011;54434;50.096;20.082;2022-12-31T00:17:31;56.20;;;27.60;;
67640;SDS011;54434;50.096;20.082;2022-12-31T00:20:10;55.90;;;27.60;;
67640;SDS011;54434;50.096;20.082;2022-12-31T00:22:46;54.90;;;28.50;;
67640;SDS011;54434;50.096;20.082;2022-12-31T00:25:22;62.60;;;29.00;;
67640;SDS011;54434;50.096;20.082;2022-12-31T00:27:59;48.50;;;24.90;;
67640;SDS011;54434;50.096;20.082;2022-12-31T00:30:38;56.40;;;26.70;;
67640;SDS011;54434;50.096;20.082;2022-12-31T00:33:15;60.60;;;28.30;;
67640;SDS011;54434;50.096;20.082;2022-12-31T00:35:52;54.20;;;26.80;;
67640;SDS011;54434;50.096;20.082;2022-12-31T00:38:28;53.30;;;26.50;;
67640;SDS011;54434;50.096;20.082;2022-12-31T00:41:05;59.60;;;27.60;;
67640;SDS011;54434;50.096;20.082;2022-12-31T00:43:42;55.60;;;26.00;;
67640;SDS011;54434;50.096;20.082;2022-12-31T00:46:20;49.40;;;26.30;;
67640;SDS011;54434;50.096;20.082;2022-12-31T00:48:57;50.80;;;25.90;;
67640;SDS011;54434;50.096;20.082;2022-12-31T00:51:34;52.40;;;26.30;;
67640;SDS011;54434;50.096;20.082;2022-12-31T00:54:10;53.50;;;24.60;;
67640;SDS011;54434;50.096;20.082;2022-12-31T00:56:46;49.90;;;23.50;;
67640;SDS011;54434;50.096;20.082;2022-12-31T00:59:23;48.80;;;24.10;;
67640;SDS011;54434;50.096;20.082;2022-12-31T01:02:00;50.60;;;25.30;;
67640;SDS011;54434;50.096;20.082;2022-12-31T01:04:36;56.30;;;26.10;;
67640;SDS011;54434;50.096;20.082;2022-12-31T01:07:13;49.20;;;23.50;;
67640;SDS011;54434;50.096;20.082;2022-12-31T01:09:49;45.80;;;24.00;;
67640;SDS011;54434;50.096;20.082;2022-12-31T01:12:27;47.30;;;23.50;;
67640;SDS011;54434;50.096;20.082;2022-12-31T01:15:05;54.40;;;25.40;;
67640;SDS011;54434;50.096;20.082;2022-12-31T01:17:42;46.80;;;23.10;;
67640;SDS011;54434;50.096;20.082;2022-12-31T01:20:19;47.60;;;23.10;;
67640;SDS011;54434;50.096;20.082;2022-12-31T01:22:55;52.60;;;24.40;;
67640;SDS011;54434;50.096;20.082;2022-12-31T01:25:32;49.40;;;22.90;;
67640;SDS011;54434;50.096;20.082;2022-12-31T01:28:10;43.30;;;21.90;;
67640;SDS011;54434;50.096;20.082;2022-12-31T01:30:46;46.50;;;23.50;;
67640;SDS011;54434;50.096;20.082;2022-12-31T01:33:23;52.50;;;23.00;;
67640;SDS011;54434;50.096;20.082;2022-12-31T01:36:03;46.20;;;23.10;;
67640;SDS011;54434;50.096;20.082;2022-12-31T01:38:42;45.40;;;23.20;;
67640;SDS011;54434;50.096;20.082;2022-12-31T01:41:21;50.60;;;22.70;;
67640;SDS011;54434;50.096;20.082;2022-12-31T01:44:01;42.80;;;23.00;;
67640;SDS011;54434;50.096;20.082;2022-12-31T01:46:55;45.70;;;22.00;;
67640;SDS011;54434;50.096;20.082;2022-12-31T01:49:37;40.90;;;21.00;;
67640;SDS011;54434;50.096;20.082;2022-12-31T01:52:21;40.20;;;21.40;;
67640;SDS011;54434;50.096;20.082;2022-12-31T01:55:09;45.40;;;22.00;;
67640;SDS011;54434;50.096;20.082;2022-12-31T01:57:54;44.20;;;21.30;;
67640;SDS011;54434;50.096;20.082;2022-12-31T02:00:35;44.10;;;21.80;;
67640;SDS011;54434;50.096;20.082;2022-12-31T02:03:12;38.00;;;19.30;;
67640;SDS011;54434;50.096;20.082;2022-12-31T02:05:53;39.50;;;20.10;;
67640;SDS011;54434;50.096;20.082;2022-12-31T02:08:36;36.70;;;19.20;;
67640;SDS011;54434;50.096;20.082;2022-12-31T02:11:28;44.20;;;21.00;;
67640;SDS011;54434;50.096;20.082;2022-12-31T02:14:12;38.40;;;18.20;;
67640;SDS011;54434;50.096;20.082;2022-12-31T02:16:57;42.50;;;19.30;;
67640;SDS011;54434;50.096;20.082;2022-12-31T02:24:07;33.00;;;17.00;;
67640;SDS011;54434;50.096;20.082;2022-12-31T02:27:11;37.20;;;18.10;;
67640;SDS011;54434;50.096;20.082;2022-12-31T02:30:14;36.90;;;17.70;;
67640;SDS011;54434;50.096;20.082;2022-12-31T02:33:13;38.10;;;19.40;;
67640;SDS011;54434;50.096;20.082;2022-12-31T02:35:58;37.40;;;17.60;;
67640;SDS011;54434;50.096;20.082;2022-12-31T02:38:42;39.80;;;19.50;;
67640;SDS011;54434;50.096;20.082;2022-12-31T02:41:21;39.70;;;19.20;;
67640;SDS011;54434;50.096;20.082;2022-12-31T02:44:26;36.70;;;18.30;;
67640;SDS011;54434;50.096;20.082;2022-12-31T02:47:19;39.60;;;19.10;;
67640;SDS011;54434;50.096;20.082;2022-12-31T02:50:22;37.50;;;18.90;;
67640;SDS011;54434;50.096;20.082;2022-12-31T02:53:18;37.30;;;18.40;;
67640;SDS011;54434;50.096;20.082;2022-12-31T02:56:11;35.10;;;17.70;;
67640;SDS011;54434;50.096;20.082;2022-12-31T02:58:59;35.40;;;18.50;;
67640;SDS011;54434;50.096;20.082;2022-12-31T03:02:10;35.50;;;18.20;;
67640;SDS011;54434;50.096;20.082;2022-12-31T03:04:55;36.80;;;19.00;;
67640;SDS011;54434;50.096;20.082;2022-12-31T03:07:34;36.50;;;18.30;;
67640;SDS011;54434;50.096;20.082;2022-12-31T03:10:12;33.20;;;17.40;;
67640;SDS011;54434;50.096;20.082;2022-12-31T03:12:49;33.60;;;16.40;;
67640;SDS011;54434;50.096;20.082;2022-12-31T03:15:27;33.20;;;17.50;;
67640;SDS011;54434;50.096;20.082;2022-12-31T03:18:08;31.40;;;17.50;;
67640;SDS011;54434;50.096;20.082;2022-12-31T03:20:49;37.20;;;17.90;;
67640;SDS011;54434;50.096;20.082;2022-12-31T03:23:44;35.00;;;18.50;;
67640;SDS011;54434;50.096;20.082;2022-12-31T03:26:38;35.50;;;19.20;;
67640;SDS011;54434;50.096;20.082;2022-12-31T03:29:15;32.40;;;17.50;;
67640;SDS011;54434;50.096;20.082;2022-12-31T03:31:51;33.70;;;17.90;;
67640;SDS011;54434;50.096;20.082;2022-12-31T03:34:27;32.10;;;17.30;;
67640;SDS011;54434;50.096;20.082;2022-12-31T03:37:04;33.30;;;17.80;;
67640;SDS011;54434;50.096;20.082;2022-12-31T03:39:40;33.10;;;17.60;;
67640;SDS011;54434;50.096;20.082;2022-12-31T03:42:17;31.00;;;16.60;;
67640;SDS011;54434;50.096;20.082;2022-12-31T03:44:53;31.60;;;17.20;;
67640;SDS011;54434;50.096;20.082;2022-12-31T03:47:29;36.40;;;17.70;;
67640;SDS011;54434;50.096;20.082;2022-12-31T03:50:09;32.60;;;16.30;;
67640;SDS011;54434;50.096;20.082;2022-12-31T03:52:47;36.30;;;17.60;;
67640;SDS011;54434;50.096;20.082;2022-12-31T03:55:23;30.20;;;17.70;;
67640;SDS011;54434;50.096;20.082;2022-12-31T03:58:00;33.20;;;18.30;;
67640;SDS011;54434;50.096;20.082;2022-12-31T04:00:36;35.40;;;17.80;;
67640;SDS011;54434;50.096;20.082;2022-12-31T04:03:13;31.40;;;17.50;;
67640;SDS011;54434;50.096;20.082;2022-12-31T04:05:55;31.00;;;17.40;;
67640;SDS011;54434;50.096;20.082;2022-12-31T04:08:31;31.40;;;17.30;;
67640;SDS011;54434;50.096;20.082;2022-12-31T04:11:08;36.60;;;18.40;;
67640;SDS011;54434;50.096;20.082;2022-12-31T04:13:52;43.10;;;20.20;;
67640;SDS011;54434;50.096;20.082;2022-12-31T04:16:28;53.00;;;25.60;;
67640;SDS011;54434;50.096;20.082;2022-12-31T04:19:05;60.10;;;28.30;;
67640;SDS011;54434;50.096;20.082;2022-12-31T04:21:41;65.30;;;30.20;;
67640;SDS011;54434;50.096;20.082;2022-12-31T04:24:18;69.00;;;31.90;;
67640;SDS011;54434;50.096;20.082;2022-12-31T04:26:55;73.00;;;34.10;;
67640;SDS011;54434;50.096;20.082;2022-12-31T04:29:39;66.60;;;33.30;;
67640;SDS011;54434;50.096;20.082;2022-12-31T04:32:16;65.80;;;29.70;;
67640;SDS011;54434;50.096;20.082;2022-12-31T04:34:52;59.30;;;28.60;;
67640;SDS011;54434;50.096;20.082;2022-12-31T04:37:29;53.80;;;25.60;;
67640;SDS011;54434;50.096;20.082;2022-12-31T04:40:08;42.90;;;22.80;;
67640;SDS011;54434;50.096;20.082;2022-12-31T04:42:44;52.00;;;24.60;;
67640;SDS011;54434;50.096;20.082;2022-12-31T04:45:21;52.80;;;25.40;;
67640;SDS011;54434;50.096;20.082;2022-12-31T04:47:57;59.20;;;28.90;;
67640;SDS011;54434;50.096;20.082;2022-12-31T04:50:33;55.90;;;26.20;;
67640;SDS011;54434;50.096;20.082;2022-12-31T04:53:10;51.60;;;25.30;;
67640;SDS011;54434;50.096;20.082;2022-12-31T04:55:47;44.80;;;22.10;;
67640;SDS011;54434;50.096;20.082;2022-12-31T04:58:24;49.50;;;26.30;;
67640;SDS011;54434;50.096;20.082;2022-12-31T05:01:00;48.20;;;25.00;;
67640;SDS011;54434;50.096;20.082;2022-12-31T05:03:37;53.20;;;25.10;;
67640;SDS011;54434;50.096;20.082;2022-12-31T05:06:17;51.10;;;25.00;;
67640;SDS011;54434;50.096;20.082;2022-12-31T05:08:54;56.70;;;26.40;;
67640;SDS011;54434;50.096;20.082;2022-12-31T05:11:31;52.30;;;25.90;;
67640;SDS011;54434;50.096;20.082;2022-12-31T05:14:08;51.20;;;24.80;;
67640;SDS011;54434;50.096;20.082;2022-12-31T05:16:44;52.60;;;24.60;;
67640;SDS011;54434;50.096;20.082;2022-12-31T05:19:21;46.40;;;24.30;;
67640;SDS011;54434;50.096;20.082;2022-12-31T05:21:57;50.90;;;25.20;;
67640;SDS011;54434;50.096;20.082;2022-12-31T05:24:51;44.00;;;22.30;;
67640;SDS011;54434;50.096;20.082;2022-12-31T05:27:29;54.30;;;25.50;;
67640;SDS011;54434;50.096;20.082;2022-12-31T05:30:08;50.90;;;24.90;;
67640;SDS011;54434;50.096;20.082;2022-12-31T05:32:45;51.60;;;25.00;;
67640;SDS011;54434;50.096;20.082;2022-12-31T05:35:22;51.70;;;26.50;;
67640;SDS011;54434;50.096;20.082;2022-12-31T05:37:59;54.10;;;26.20;;
67640;SDS011;54434;50.096;20.082;2022-12-31T05:40:36;51.30;;;25.90;;
67640;SDS011;54434;50.096;20.082;2022-12-31T05:43:12;51.90;;;25.40;;
67640;SDS011;54434;50.096;20.082;2022-12-31T05:45:49;55.30;;;28.40;;
67640;SDS011;54434;50.096;20.082;2022-12-31T05:48:26;52.90;;;26.80;;
67640;SDS011;54434;50.096;20.082;2022-12-31T05:51:03;50.60;;;25.20;;
67640;SDS011;54434;50.096;20.082;2022-12-31T05:53:39;47.50;;;23.60;;
67640;SDS011;54434;50.096;20.082;2022-12-31T05:56:16;46.70;;;24.30;;
67640;SDS011;54434;50.096;20.082;2022-12-31T05:58:52;49.10;;;25.20;;
67640;SDS011;54434;50.096;20.082;2022-12-31T06:01:29;50.60;;;25.60;;
67640;SDS011;54434;50.096;20.082;2022-12-31T06:04:05;49.00;;;25.00;;
67640;SDS011;54434;50.096;20.082;2022-12-31T06:06:42;48.50;;;24.50;;
67640;SDS011;54434;50.096;20.082;2022-12-31T06:09:19;50.50;;;24.50;;
67640;SDS011;54434;50.096;20.082;2022-12-31T06:11:55;44.10;;;24.80;;
67640;SDS011;54434;50.096;20.082;2022-12-31T06:14:32;48.00;;;25.80;;
67640;SDS011;54434;50.096;20.082;2022-12-31T06:17:16;49.20;;;25.90;;
67640;SDS011;54434;50.096;20.082;2022-12-31T06:19:52;52.60;;;27.10;;
67640;SDS011;54434;50.096;20.082;2022-12-31T06:22:29;45.50;;;25.10;;
67640;SDS011;54434;50.096;20.082;2022-12-31T06:25:07;50.70;;;26.00;;
67640;SDS011;54434;50.096;20.082;2022-12-31T06:27:44;46.90;;;24.60;;
67640;SDS011;54434;50.096;20.082;2022-12-31T06:30:20;48.10;;;24.20;;
67640;SDS011;54434;50.096;20.082;2022-12-31T06:32:57;44.20;;;23.80;;
67640;SDS011;54434;50.096;20.082;2022-12-31T06:35:34;47.10;;;24.80;;
67640;SDS011;54434;50.096;20.082;2022-12-31T06:38:10;47.70;;;25.70;;
67640;SDS011;54434;50.096;20.082;2022-12-31T06:40:47;49.30;;;25.20;;
67640;SDS011;54434;50.096;20.082;2022-12-31T06:43:23;51.80;;;26.80;;
67640;SDS011;54434;50.096;20.082;2022-12-31T06:46:02;51.00;;;26.30;;
67640;SDS011;54434;50.096;20.082;2022-12-31T06:48:40;50.60;;;28.20;;
67640;SDS011;54434;50.096;20.082;2022-12-31T06:51:20;51.10;;;27.30;;
67640;SDS011;54434;50.096;20.082;2022-12-31T06:53:56;55.40;;;27.00;;
67640;SDS011;54434;50.096;20.082;2022-12-31T06:56:34;64.30;;;33.10;;
67640;SDS011;54434;50.096;20.082;2022-12-31T06:59:27;55.30;;;28.50;;
67640;SDS011;54434;50.096;20.082;2022-12-31T07:03:06;54.40;;;26.00;;
67640;SDS011;54434;50.096;20.082;2022-12-31T07:05:54;42.30;;;23.00;;
67640;SDS011;54434;50.096;20.082;2022-12-31T07:08:46;55.10;;;26.90;;
67640;SDS011;54434;50.096;20.082;2022-12-31T07:11:31;54.40;;;27.80;;
67640;SDS011;54434;50.096;20.082;2022-12-31T07:14:25;55.70;;;28.50;;
67640;SDS011;54434;50.096;20.082;2022-12-31T07:17:19;56.10;;;28.40;;
67640;SDS011;54434;50.096;20.082;2022-12-31T07:20:09;57.20;;;28.20;;
67640;SDS011;54434;50.096;20.082;2022-12-31T07:22:49;56.50;;;29.20;;
67640;SDS011;54434;50.096;20.082;2022-12-31T07:25:27;59.70;;;29.30;;
67640;SDS011;54434;50.096;20.082;2022-12-31T07:28:15;57.00;;;28.90;;
67640;SDS011;54434;50.096;20.082;2022-12-31T07:31:06;52.40;;;27.50;;
67640;SDS011;54434;50.096;20.082;2022-12-31T07:33:58;54.00;;;27.20;;
67640;SDS011;54434;50.096;20.082;2022-12-31T07:37:00;47.30;;;25.00;;
67640;SDS011;54434;50.096;20.082;2022-12-31T07:39:46;54.50;;;26.90;;
67640;SDS011;54434;50.096;20.082;2022-12-31T07:42:43;49.40;;;25.80;;
67640;SDS011;54434;50.096;20.082;2022-12-31T07:45:39;45.30;;;24.40;;
67640;SDS011;54434;50.096;20.082;2022-12-31T07:48:29;53.80;;;26.30;;
67640;SDS011;54434;50.096;20.082;2022-12-31T07:51:10;49.30;;;26.00;;
67640;SDS011;54434;50.096;20.082;2022-12-31T07:53:47;48.20;;;25.50;;
67640;SDS011;54434;50.096;20.082;2022-12-31T07:56:23;46.90;;;24.30;;
67640;SDS011;54434;50.096;20.082;2022-12-31T07:59:16;53.10;;;26.20;;
67640;SDS011;54434;50.096;20.082;2022-12-31T08:04:55;42.50;;;22.40;;
67640;SDS011;54434;50.096;20.082;2022-12-31T08:07:46;46.50;;;23.80;;
67640;SDS011;54434;50.096;20.082;2022-12-31T08:10:32;45.50;;;23.60;;
67640;SDS011;54434;50.096;20.082;2022-12-31T08:13:17;44.80;;;22.10;;
67640;SDS011;54434;50.096;20.082;2022-12-31T08:15:55;43.40;;;23.60;;
67640;SDS011;54434;50.096;20.082;2022-12-31T08:18:34;46.20;;;23.70;;
67640;SDS011;54434;50.096;20.082;2022-12-31T08:21:21;47.40;;;23.90;;
67640;SDS011;54434;50.096;20.082;2022-12-31T08:24:16;47.00;;;23.20;;
67640;SDS011;54434;50.096;20.082;2022-12-31T08:27:09;49.20;;;25.70;;
67640;SDS011;54434;50.096;20.082;2022-12-31T08:30:00;42.60;;;23.40;;
67640;SDS011;54434;50.096;20.082;2022-12-31T08:32:47;41.40;;;22.50;;
67640;SDS011;54434;50.096;20.082;2022-12-31T08:35:51;42.70;;;22.30;;
67640;SDS011;54434;50.096;20.082;2022-12-31T08:38:44;39.50;;;22.40;;
67640;SDS011;54434;50.096;20.082;2022-12-31T08:41:32;38.40;;;20.80;;
67640;SDS011;54434;50.096;20.082;2022-12-31T08:44:21;37.10;;;20.40;;
67640;SDS011;54434;50.096;20.082;2022-12-31T08:50:18;37.40;;;19.10;;
67640;SDS011;54434;50.096;20.082;2022-12-31T08:52:57;27.90;;;17.20;;
67640;SDS011;54434;50.096;20.082;2022-12-31T08:55:36;33.90;;;17.20;;
67640;SDS011;54434;50.096;20.082;2022-12-31T08:58:28;27.20;;;15.70;;
67640;SDS011;54434;50.096;20.082;2022-12-31T09:01:15;26.20;;;15.20;;
67640;SDS011;54434;50.096;20.082;2022-12-31T09:04:13;23.60;;;14.00;;
67640;SDS011;54434;50.096;20.082;2022-12-31T09:07:02;22.50;;;14.20;;
67640;SDS011;54434;50.096;20.082;2022-12-31T09:12:30;22.00;;;12.00;;
67640;SDS011;54434;50.096;20.082;2022-12-31T09:15:16;20.30;;;12.10;;
67640;SDS011;54434;50.096;20.082;2022-12-31T09:18:00;22.30;;;11.00;;
67640;SDS011;54434;50.096;20.082;2022-12-31T09:20:38;18.10;;;11.30;;
67640;SDS011;54434;50.096;20.082;2022-12-31T09:23:18;17.40;;;10.50;;
67640;SDS011;54434;50.096;20.082;2022-12-31T09:26:03;17.70;;;10.10;;
67640;SDS011;54434;50.096;20.082;2022-12-31T09:28:55;17.30;;;9.40;;
67640;SDS011;54434;50.096;20.082;2022-12-31T09:31:42;369.70;;;144.50;;
67640;SDS011;54434;50.096;20.082;2022-12-31T09:34:27;29.00;;;16.10;;
67640;SDS011;54434;50.096;20.082;2022-12-31T09:37:16;21.50;;;12.30;;
67640;SDS011;54434;50.096;20.082;2022-12-31T09:40:14;16.20;;;9.70;;
67640;SDS011;54434;50.096;20.082;2022-12-31T09:43:44;15.40;;;8.50;;
67640;SDS011;54434;50.096;20.082;2022-12-31T09:50:38;10.30;;;6.10;;
67640;SDS011;54434;50.096;20.082;2022-12-31T09:54:01;10.90;;;6.00;;
67640;SDS011;54434;50.096;20.082;2022-12-31T09:57:11;9.00;;;4.60;;
67640;SDS011;54434;50.096;20.082;2022-12-31T10:00:02;8.00;;;4.60;;
67640;SDS011;54434;50.096;20.082;2022-12-31T10:03:11;7.70;;;3.90;;
67640;SDS011;54434;50.096;20.082;2022-12-31T10:06:19;9.20;;;4.90;;
67640;SDS011;54434;50.096;20.082;2022-12-31T10:09:33;7.90;;;4.30;;
67640;SDS011;54434;50.096;20.082;2022-12-31T10:16:08;7.10;;;3.90;;
67640;SDS011;54434;50.096;20.082;2022-12-31T10:19:46;6.90;;;3.60;;
67640;SDS011;54434;50.096;20.082;2022-12-31T10:22:51;6.00;;;3.30;;
67640;SDS011;54434;50.096;20.082;2022-12-31T10:29:07;4.40;;;2.80;;
67640;SDS011;54434;50.096;20.082;2022-12-31T10:32:00;6.20;;;2.60;;
67640;SDS011;54434;50.096;20.082;2022-12-31T10:34:56;4.60;;;2.80;;
67640;SDS011;54434;50.096;20.082;2022-12-31T10:37:51;3.80;;;2.30;;
67640;SDS011;54434;50.096;20.082;2022-12-31T10:41:16;4.70;;;2.50;;
67640;SDS011;54434;50.096;20.082;2022-12-31T10:48:28;2.80;;;2.00;;
67640;SDS011;54434;50.096;20.082;2022-12-31T10:51:49;4.80;;;2.30;;
67640;SDS011;54434;50.096;20.082;2022-12-31T10:55:31;4.20;;;2.40;;
67640;SDS011;54434;50.096;20.082;2022-12-31T10:59:15;6.90;;;2.40;;
67640;SDS011;54434;50.096;20.082;2022-12-31T11:06:20;5.00;;;2.50;;
67640;SDS011;54434;50.096;20.082;2022-12-31T11:09:57;3.90;;;2.10;;
67640;SDS011;54434;50.096;20.082;2022-12-31T11:17:01;4.80;;;2.30;;
67640;SDS011;54434;50.096;20.082;2022-12-31T11:20:00;6.00;;;2.10;;
67640;SDS011;54434;50.096;20.082;2022-12-31T11:22:59;4.40;;;2.10;;
67640;SDS011;54434;50.096;20.082;2022-12-31T11:25:56;3.50;;;2.00;;
67640;SDS011;54434;50.096;20.082;2022-12-31T11:28:53;3.60;;;2.00;;
67640;SDS011;54434;50.096;20.082;2022-12-31T11:32:05;5.00;;;2.20;;
67640;SDS011;54434;50.096;20.082;2022-12-31T11:35:42;3.90;;;2.10;;
67640;SDS011;54434;50.096;20.082;2022-12-31T11:38:34;3.30;;;2.10;;
67640;SDS011;54434;50.096;20.082;2022-12-31T11:41:24;3.80;;;2.00;;
67640;SDS011;54434;50.096;20.082;2022-12-31T11:44:21;6.00;;;2.30;;
67640;SDS011;54434;50.096;20.082;2022-12-31T11:47:33;4.60;;;2.10;;
67640;SDS011;54434;50.096;20.082;2022-12-31T11:50:52;4.70;;;2.20;;
67640;SDS011;54434;50.096;20.082;2022-12-31T11:57:07;3.50;;;2.10;;
67640;SDS011;54434;50.096;20.082;2022-12-31T11:59:52;4.80;;;2.10;;
67640;SDS011;54434;50.096;20.082;2022-12-31T12:02:36;4.00;;;2.10;;
67640;SDS011;54434;50.096;20.082;2022-12-31T12:05:21;4.80;;;2.10;;
67640;SDS011;54434;50.096;20.082;2022-12-31T12:07:58;3.80;;;2.00;;
67640;SDS011;54434;50.096;20.082;2022-12-31T12:10:40;9.00;;;4.00;;
67640;SDS011;54434;50.096;20.082;2022-12-31T12:13:25;5.40;;;2.20;;
67640;SDS011;54434;50.096;20.082;2022-12-31T12:16:06;3.90;;;2.00;;
67640;SDS011;54434;50.096;20.082;2022-12-31T12:18:46;3.10;;;1.90;;
67640;SDS011;54434;50.096;20.082;2022-12-31T12:21:25;4.00;;;2.00;;
67640;SDS011;54434;50.096;20.082;2022-12-31T12:24:05;3.70;;;1.90;;
67640;SDS011;54434;50.096;20.082;2022-12-31T12:26:54;5.90;;;2.30;;
67640;SDS011;54434;50.096;20.082;2022-12-31T12:29:33;4.00;;;2.30;;
67640;SDS011;54434;50.096;20.082;2022-12-31T12:32:19;5.10;;;2.40;;
67640;SDS011;54434;50.096;20.082;2022-12-31T12:34:58;4.20;;;2.10;;
67640;SDS011;54434;50.096;20.082;2022-12-31T12:37:35;5.20;;;2.30;;
67640;SDS011;54434;50.096;20.082;2022-12-31T12:40:21;4.60;;;2.20;;
67640;SDS011;54434;50.096;20.082;2022-12-31T12:43:16;3.60;;;2.00;;
67640;SDS011;54434;50.096;20.082;2022-12-31T12:46:02;4.20;;;2.10;;
67640;SDS011;54434;50.096;20.082;2022-12-31T12:51:30;5.80;;;2.20;;
67640;SDS011;54434;50.096;20.082;2022-12-31T12:54:30;5.40;;;2.20;;
67640;SDS011;54434;50.096;20.082;2022-12-31T12:57:22;4.00;;;2.00;;
67640;SDS011;54434;50.096;20.082;2022-12-31T13:00:13;4.10;;;2.10;;
67640;SDS011;54434;50.096;20.082;2022-12-31T13:03:14;3.90;;;2.20;;
67640;SDS011;54434;50.096;20.082;2022-12-31T13:06:20;4.20;;;2.10;;
67640;SDS011;54434;50.096;20.082;2022-12-31T13:09:24;4.20;;;2.10;;
67640;SDS011;54434;50.096;20.082;2022-12-31T13:12:22;4.60;;;2.00;;
67640;SDS011;54434;50.096;20.082;2022-12-31T13:15:28;4.30;;;2.20;;
67640;SDS011;54434;50.096;20.082;2022-12-31T13:18:23;4.70;;;2.20;;
67640;SDS011;54434;50.096;20.082;2022-12-31T13:21:22;3.90;;;2.20;;
67640;SDS011;54434;50.096;20.082;2022-12-31T13:24:21;5.20;;;2.30;;
67640;SDS011;54434;50.096;20.082;2022-12-31T13:27:10;6.90;;;2.40;;
67640;SDS011;54434;50.096;20.082;2022-12-31T13:29:53;6.30;;;2.60;;
67640;SDS011;54434;50.096;20.082;2022-12-31T13:32:39;4.50;;;2.20;;
67640;SDS011;54434;50.096;20.082;2022-12-31T13:35:25;4.60;;;2.20;;
67640;SDS011;54434;50.096;20.082;2022-12-31T13:38:09;4.70;;;2.20;;
67640;SDS011;54434;50.096;20.082;2022-12-31T13:40:59;5.80;;;2.30;;
67640;SDS011;54434;50.096;20.082;2022-12-31T13:43:42;4.40;;;2.40;;
67640;SDS011;54434;50.096;20.082;2022-12-31T13:46:38;4.70;;;2.20;;
67640;SDS011;54434;50.096;20.082;2022-12-31T13:49:21;4.70;;;2.40;;
67640;SDS011;54434;50.096;20.082;2022-12-31T13:52:17;4.10;;;2.20;;
67640;SDS011;54434;50.096;20.082;2022-12-31T13:55:08;5.20;;;2.50;;
67640;SDS011;54434;50.096;20.082;2022-12-31T13:57:52;7.50;;;2.60;;
67640;SDS011;54434;50.096;20.082;2022-12-31T14:00:36;4.60;;;2.20;;
67640;SDS011;54434;50.096;20.082;2022-12-31T14:03:23;5.60;;;3.00;;
67640;SDS011;54434;50.096;20.082;2022-12-31T14:06:15;7.70;;;4.10;;
67640;SDS011;54434;50.096;20.082;2022-12-31T14:08:59;6.60;;;2.90;;
67640;SDS011;54434;50.096;20.082;2022-12-31T14:11:56;5.30;;;2.70;;
67640;SDS011;54434;50.096;20.082;2022-12-31T14:14:48;5.20;;;2.70;;
67640;SDS011;54434;50.096;20.082;2022-12-31T14:17:43;6.70;;;2.60;;
67640;SDS011;54434;50.096;20.082;2022-12-31T14:20:29;5.50;;;2.60;;
67640;SDS011;54434;50.096;20.082;2022-12-31T14:23:22;6.60;;;2.60;;
67640;SDS011;54434;50.096;20.082;2022-12-31T14:26:12;6.10;;;2.60;;
67640;SDS011;54434;50.096;20.082;2022-12-31T14:29:02;7.10;;;2.80;;
67640;SDS011;54434;50.096;20.082;2022-12-31T14:32:11;9.80;;;2.90;;
67640;SDS011;54434;50.096;20.082;2022-12-31T14:35:12;6.40;;;2.70;;
67640;SDS011;54434;50.096;20.082;2022-12-31T14:38:18;8.40;;;2.90;;
67640;SDS011;54434;50.096;20.082;2022-12-31T14:41:16;4.70;;;2.40;;
67640;SDS011;54434;50.096;20.082;2022-12-31T14:44:13;5.80;;;2.80;;
67640;SDS011;54434;50.096;20.082;2022-12-31T14:47:10;6.50;;;2.80;;
67640;SDS011;54434;50.096;20.082;2022-12-31T14:50:05;6.00;;;2.90;;
67640;SDS011;54434;50.096;20.082;2022-12-31T14:53:04;5.30;;;2.70;;
67640;SDS011;54434;50.096;20.082;2022-12-31T14:55:59;6.00;;;3.00;;
67640;SDS011;54434;50.096;20.082;2022-12-31T14:58:39;6.00;;;2.90;;
67640;SDS011;54434;50.096;20.082;2022-12-31T15:01:22;6.50;;;3.00;;
67640;SDS011;54434;50.096;20.082;2022-12-31T15:03:59;5.80;;;2.90;;
67640;SDS011;54434;50.096;20.082;2022-12-31T15:06:56;6.30;;;3.20;;
67640;SDS011;54434;50.096;20.082;2022-12-31T15:10:01;7.30;;;3.00;;
67640;SDS011;54434;50.096;20.082;2022-12-31T15:13:01;6.70;;;3.20;;
67640;SDS011;54434;50.096;20.082;2022-12-31T15:15:59;8.00;;;3.60;;
67640;SDS011;54434;50.096;20.082;2022-12-31T15:19:17;6.10;;;3.10;;
67640;SDS011;54434;50.096;20.082;2022-12-31T15:22:36;7.30;;;3.20;;
67640;SDS011;54434;50.096;20.082;2022-12-31T15:25:28;6.60;;;3.20;;
67640;SDS011;54434;50.096;20.082;2022-12-31T15:28:34;7.70;;;3.40;;
67640;SDS011;54434;50.096;20.082;2022-12-31T15:31:18;6.50;;;3.40;;
67640;SDS011;54434;50.096;20.082;2022-12-31T15:34:02;6.60;;;3.40;;
67640;SDS011;54434;50.096;20.082;2022-12-31T15:36:52;6.80;;;3.70;;
67640;SDS011;54434;50.096;20.082;2022-12-31T15:39:43;8.30;;;3.70;;
67640;SDS011;54434;50.096;20.082;2022-12-31T15:42:43;7.70;;;3.80;;
67640;SDS011;54434;50.096;20.082;2022-12-31T15:45:26;7.10;;;3.80;;
67640;SDS011;54434;50.096;20.082;2022-12-31T15:48:17;7.80;;;4.20;;
67640;SDS011;54434;50.096;20.082;2022-12-31T15:50:58;7.70;;;3.80;;
67640;SDS011;54434;50.096;20.082;2022-12-31T15:53:40;8.70;;;4.00;;
67640;SDS011;54434;50.096;20.082;2022-12-31T15:56:32;8.20;;;3.40;;
67640;SDS011;54434;50.096;20.082;2022-12-31T15:59:16;9.60;;;5.20;;
67640;SDS011;54434;50.096;20.082;2022-12-31T16:01:55;10.20;;;4.90;;
67640;SDS011;54434;50.096;20.082;2022-12-31T16:04:32;11.70;;;4.50;;
67640;SDS011;54434;50.096;20.082;2022-12-31T16:09:53;6.00;;;3.50;;
67640;SDS011;54434;50.096;20.082;2022-12-31T16:12:33;7.60;;;3.90;;
67640;SDS011;54434;50.096;20.082;2022-12-31T16:15:23;7.60;;;4.20;;
67640;SDS011;54434;50.096;20.082;2022-12-31T16:18:07;8.20;;;3.80;;
67640;SDS011;54434;50.096;20.082;2022-12-31T16:20:55;8.90;;;4.10;;
67640;SDS011;54434;50.096;20.082;2022-12-31T16:23:31;9.00;;;4.50;;
67640;SDS011;54434;50.096;20.082;2022-12-31T16:26:14;15.50;;;9.00;;
67640;SDS011;54434;50.096;20.082;2022-12-31T16:28:51;49.60;;;31.30;;
67640;SDS011;54434;50.096;20.082;2022-12-31T16:31:32;12.00;;;5.60;;
67640;SDS011;54434;50.096;20.082;2022-12-31T16:34:13;9.60;;;5.20;;
67640;SDS011;54434;50.096;20.082;2022-12-31T16:37:00;11.10;;;5.50;;
67640;SDS011;54434;50.096;20.082;2022-12-31T16:39:39;10.80;;;5.20;;
67640;SDS011;54434;50.096;20.082;2022-12-31T16:42:50;11.20;;;5.60;;
67640;SDS011;54434;50.096;20.082;2022-12-31T16:45:34;11.20;;;5.60;;
67640;SDS011;54434;50.096;20.082;2022-12-31T16:48:17;10.00;;;5.30;;
67640;SDS011;54434;50.096;20.082;2022-12-31T16:50:56;11.20;;;5.40;;
67640;SDS011;54434;50.096;20.082;2022-12-31T16:53:36;10.80;;;5.60;;
67640;SDS011;54434;50.096;20.082;2022-12-31T16:56:30;12.20;;;5.30;;
67640;SDS011;54434;50.096;20.082;2022-12-31T16:59:15;12.70;;;6.20;;